ABY161 OEDF-OMSJ
Flight info
| Callsign | ABY161 |
|---|---|
| Flight time | 1h 4m |
| Altitude | 37000 |
| Route | ROTEL N572 DAVRI P559 NALPO/N0445F350 P559 KIVUS/N0444F310 L305 EMOTA R784 GONVI |
| Aircraft | A320/M-SDE3FGHIRWY/LB1 |
Departure
| Time | 2026-04-24 08:46 |
|---|---|
| Airport | King Fahd International Airport (OEDF) |
Arrival
| Time | 2026-04-24 09:51 |
|---|---|
| Airport | Sharjah International Airport (OMSJ) |
| Time | Latitude | Longitude | Altitude | Speed | Heading |
|---|---|---|---|---|---|
| 2026-04-24 08:22 | 26.45385 | 49.81796 | 83 ft | 0 kts | 168° |
| 2026-04-24 08:41 | 26.45401 | 49.81792 | 85 ft | 4 kts | 171° |
| 2026-04-24 08:41 | 26.45428 | 49.81788 | 83 ft | 4 kts | 180° |
| 2026-04-24 08:42 | 26.45445 | 49.81789 | 85 ft | 3 kts | 186° |
| 2026-04-24 08:42 | 26.45452 | 49.81790 | 82 ft | 0 kts | 187° |
| 2026-04-24 08:43 | 26.45442 | 49.81761 | 83 ft | 8 kts | 271° |
| 2026-04-24 08:44 | 26.45451 | 49.81706 | 84 ft | 7 kts | 274° |
| 2026-04-24 08:44 | 26.45445 | 49.81655 | 85 ft | 6 kts | 257° |
| 2026-04-24 08:44 | 26.45433 | 49.81601 | 83 ft | 7 kts | 256° |
| 2026-04-24 08:44 | 26.45421 | 49.81541 | 82 ft | 8 kts | 259° |
| 2026-04-24 08:45 | 26.45420 | 49.81445 | 84 ft | 13 kts | 296° |
| 2026-04-24 08:45 | 26.45499 | 49.81411 | 81 ft | 14 kts | 346° |
| 2026-04-24 08:45 | 26.45721 | 49.81341 | 67 ft | 67 kts | 344° |
| 2026-04-24 08:45 | 26.46380 | 49.81142 | 84 ft | 126 kts | 345° |
| 2026-04-24 08:46 | 26.47371 | 49.80822 | 87 ft | 171 kts | 342° |
| 2026-04-24 08:46 | 26.48557 | 49.80446 | 602 ft | 181 kts | 346° |
| 2026-04-24 08:46 | 26.49766 | 49.80088 | 1357 ft | 180 kts | 347° |
| 2026-04-24 08:46 | 26.51038 | 49.79722 | 1796 ft | 200 kts | 347° |
| 2026-04-24 08:47 | 26.52472 | 49.79308 | 2120 ft | 224 kts | 347° |
| 2026-04-24 08:47 | 26.54037 | 49.78853 | 2504 ft | 247 kts | 347° |
| 2026-04-24 08:47 | 26.55741 | 49.78356 | 3234 ft | 256 kts | 347° |
| 2026-04-24 08:47 | 26.57500 | 49.77938 | 3806 ft | 262 kts | 358° |
| 2026-04-24 08:48 | 26.59262 | 49.78432 | 3975 ft | 266 kts | 32° |
| 2026-04-24 08:48 | 26.60476 | 49.79986 | 4161 ft | 275 kts | 68° |
| 2026-04-24 08:48 | 26.60689 | 49.82098 | 4969 ft | 281 kts | 100° |
| 2026-04-24 08:48 | 26.59988 | 49.84154 | 5760 ft | 286 kts | 118° |
| 2026-04-24 08:49 | 26.58887 | 49.86006 | 6462 ft | 293 kts | 131° |
| 2026-04-24 08:49 | 26.57621 | 49.87816 | 7224 ft | 298 kts | 126° |
| 2026-04-24 08:49 | 26.56613 | 49.89858 | 8073 ft | 301 kts | 117° |
| 2026-04-24 08:49 | 26.55926 | 49.92084 | 8855 ft | 306 kts | 107° |
| 2026-04-24 08:50 | 26.55591 | 49.94452 | 9547 ft | 313 kts | 97° |
| 2026-04-24 08:50 | 26.55625 | 49.96911 | 10204 ft | 322 kts | 86° |
| 2026-04-24 08:50 | 26.56047 | 49.99454 | 10401 ft | 346 kts | 75° |
| 2026-04-24 08:50 | 26.56832 | 50.02101 | 10555 ft | 369 kts | 72° |
| 2026-04-24 08:51 | 26.57661 | 50.04840 | 10955 ft | 381 kts | 72° |
| 2026-04-24 08:51 | 26.58513 | 50.07659 | 11588 ft | 385 kts | 72° |
| 2026-04-24 08:51 | 26.59371 | 50.10506 | 12332 ft | 387 kts | 72° |
| 2026-04-24 08:51 | 26.60233 | 50.13362 | 13065 ft | 389 kts | 72° |
| 2026-04-24 08:52 | 26.61097 | 50.16246 | 13709 ft | 392 kts | 72° |
| 2026-04-24 08:52 | 26.61967 | 50.19165 | 14338 ft | 396 kts | 72° |
| 2026-04-24 08:52 | 26.62839 | 50.22102 | 14944 ft | 400 kts | 72° |
| 2026-04-24 08:52 | 26.63719 | 50.25068 | 15528 ft | 404 kts | 72° |
| 2026-04-24 08:53 | 26.64601 | 50.28027 | 16111 ft | 407 kts | 71° |
| 2026-04-24 08:53 | 26.65422 | 50.31091 | 16653 ft | 411 kts | 78° |
| 2026-04-24 08:53 | 26.65783 | 50.34264 | 17180 ft | 414 kts | 89° |
| 2026-04-24 08:53 | 26.65623 | 50.37501 | 17700 ft | 417 kts | 99° |
| 2026-04-24 08:54 | 26.64947 | 50.40658 | 18218 ft | 418 kts | 110° |
| 2026-04-24 08:54 | 26.63787 | 50.43648 | 18687 ft | 420 kts | 119° |
| 2026-04-24 08:54 | 26.62473 | 50.46531 | 19162 ft | 424 kts | 119° |
| 2026-04-24 08:54 | 26.61127 | 50.49490 | 19637 ft | 428 kts | 119° |
| 2026-04-24 08:55 | 26.59773 | 50.52469 | 20098 ft | 431 kts | 119° |
| 2026-04-24 08:55 | 26.58405 | 50.55479 | 20548 ft | 435 kts | 119° |
| 2026-04-24 08:55 | 26.57029 | 50.58500 | 20976 ft | 438 kts | 119° |
| 2026-04-24 08:55 | 26.55652 | 50.61520 | 21392 ft | 442 kts | 119° |
| 2026-04-24 08:56 | 26.54254 | 50.64586 | 21804 ft | 445 kts | 120° |
| 2026-04-24 08:56 | 26.52839 | 50.67687 | 22206 ft | 448 kts | 120° |
| 2026-04-24 08:56 | 26.51413 | 50.70807 | 22612 ft | 451 kts | 120° |
| 2026-04-24 08:56 | 26.49977 | 50.73945 | 23002 ft | 454 kts | 120° |
| 2026-04-24 08:57 | 26.48540 | 50.77104 | 23372 ft | 458 kts | 118° |
| 2026-04-24 08:57 | 26.47369 | 50.80438 | 23731 ft | 464 kts | 109° |
| 2026-04-24 08:57 | 26.46644 | 50.83910 | 24090 ft | 469 kts | 101° |
| 2026-04-24 08:57 | 26.46397 | 50.87567 | 24435 ft | 474 kts | 91° |
| 2026-04-24 08:58 | 26.46443 | 50.91261 | 24761 ft | 476 kts | 90° |
| 2026-04-24 08:58 | 26.46502 | 50.94972 | 24917 ft | 478 kts | 90° |
| 2026-04-24 08:58 | 26.46569 | 50.98707 | 24955 ft | 485 kts | 90° |
| 2026-04-24 08:58 | 26.46637 | 51.02446 | 24952 ft | 488 kts | 90° |
| 2026-04-24 08:59 | 26.46707 | 51.06235 | 24952 ft | 489 kts | 90° |
| 2026-04-24 08:59 | 26.46779 | 51.10046 | 24953 ft | 489 kts | 90° |
| 2026-04-24 08:59 | 26.46849 | 51.13830 | 24952 ft | 489 kts | 90° |
| 2026-04-24 08:59 | 26.46912 | 51.17624 | 24953 ft | 488 kts | 90° |
| 2026-04-24 09:00 | 26.46970 | 51.21422 | 24953 ft | 488 kts | 90° |
| 2026-04-24 09:00 | 26.47024 | 51.25167 | 24953 ft | 488 kts | 90° |
| 2026-04-24 09:00 | 26.47078 | 51.28945 | 24952 ft | 487 kts | 90° |
| 2026-04-24 09:00 | 26.47133 | 51.32725 | 24952 ft | 487 kts | 90° |
| 2026-04-24 09:01 | 26.47188 | 51.36506 | 24952 ft | 486 kts | 90° |
| 2026-04-24 09:01 | 26.47241 | 51.40284 | 24952 ft | 486 kts | 90° |
| 2026-04-24 09:01 | 26.47293 | 51.44063 | 24952 ft | 486 kts | 90° |
| 2026-04-24 09:01 | 26.47344 | 51.47835 | 24951 ft | 485 kts | 90° |
| 2026-04-24 09:02 | 26.47395 | 51.51596 | 24950 ft | 485 kts | 90° |
| 2026-04-24 09:02 | 26.47443 | 51.55315 | 24951 ft | 485 kts | 90° |
| 2026-04-24 09:02 | 26.47492 | 51.59077 | 24952 ft | 485 kts | 90° |
| 2026-04-24 09:02 | 26.47377 | 51.62836 | 24952 ft | 482 kts | 98° |
| 2026-04-24 09:03 | 26.46766 | 51.66509 | 24957 ft | 479 kts | 107° |
| 2026-04-24 09:03 | 26.45698 | 51.70023 | 24961 ft | 477 kts | 113° |
| 2026-04-24 09:03 | 26.44528 | 51.73494 | 24961 ft | 477 kts | 113° |
| 2026-04-24 09:03 | 26.43367 | 51.76960 | 24962 ft | 477 kts | 113° |
| 2026-04-24 09:04 | 26.42218 | 51.80390 | 24967 ft | 476 kts | 113° |
| 2026-04-24 09:04 | 26.41059 | 51.83844 | 24965 ft | 476 kts | 113° |
| 2026-04-24 09:04 | 26.39896 | 51.87303 | 24964 ft | 476 kts | 113° |
| 2026-04-24 09:04 | 26.38729 | 51.90767 | 24963 ft | 475 kts | 113° |
| 2026-04-24 09:05 | 26.37554 | 51.94216 | 24965 ft | 474 kts | 115° |
| 2026-04-24 09:05 | 26.36160 | 51.97543 | 24963 ft | 473 kts | 118° |
| 2026-04-24 09:05 | 26.34734 | 52.00845 | 24962 ft | 473 kts | 118° |
| 2026-04-24 09:05 | 26.33307 | 52.04147 | 24962 ft | 472 kts | 118° |
| 2026-04-24 09:06 | 26.31882 | 52.07443 | 24963 ft | 472 kts | 118° |
| 2026-04-24 09:06 | 26.30453 | 52.10745 | 24962 ft | 472 kts | 118° |
| 2026-04-24 09:06 | 26.29027 | 52.14042 | 24953 ft | 472 kts | 118° |
| 2026-04-24 09:06 | 26.27624 | 52.17291 | 24942 ft | 472 kts | 118° |
| 2026-04-24 09:07 | 26.26200 | 52.20589 | 24935 ft | 472 kts | 118° |
| 2026-04-24 09:07 | 26.24776 | 52.23877 | 24930 ft | 472 kts | 118° |
| 2026-04-24 09:07 | 26.21918 | 52.30465 | 24923 ft | 471 kts | 118° |
| 2026-04-24 09:08 | 26.20475 | 52.33755 | 24921 ft | 471 kts | 118° |
| 2026-04-24 09:08 | 26.19019 | 52.37021 | 24919 ft | 471 kts | 119° |
| 2026-04-24 09:08 | 26.17548 | 52.40287 | 24922 ft | 471 kts | 119° |
| 2026-04-24 09:08 | 26.16087 | 52.43505 | 24925 ft | 471 kts | 120° |
| 2026-04-24 09:09 | 26.14600 | 52.46775 | 24915 ft | 472 kts | 120° |
| 2026-04-24 09:09 | 26.13116 | 52.50042 | 24902 ft | 473 kts | 120° |
| 2026-04-24 09:09 | 26.11630 | 52.53324 | 24899 ft | 474 kts | 120° |
| 2026-04-24 09:09 | 26.10150 | 52.56602 | 24896 ft | 474 kts | 120° |
| 2026-04-24 09:10 | 26.08692 | 52.59843 | 24896 ft | 475 kts | 120° |
| 2026-04-24 09:10 | 26.07212 | 52.63140 | 24899 ft | 475 kts | 120° |
| 2026-04-24 09:10 | 26.05737 | 52.66426 | 24898 ft | 475 kts | 120° |
| 2026-04-24 09:10 | 26.04254 | 52.69722 | 24900 ft | 475 kts | 120° |
| 2026-04-24 09:11 | 26.02771 | 52.73008 | 24902 ft | 476 kts | 120° |
| 2026-04-24 09:11 | 26.01289 | 52.76311 | 24902 ft | 476 kts | 119° |
| 2026-04-24 09:11 | 25.99874 | 52.79637 | 24901 ft | 477 kts | 117° |
| 2026-04-24 09:11 | 25.98527 | 52.82969 | 24903 ft | 477 kts | 116° |
| 2026-04-24 09:12 | 25.97196 | 52.86358 | 24904 ft | 478 kts | 116° |
| 2026-04-24 09:12 | 25.95872 | 52.89747 | 24905 ft | 478 kts | 116° |
| 2026-04-24 09:12 | 25.94536 | 52.93135 | 24906 ft | 477 kts | 116° |
| 2026-04-24 09:12 | 25.93189 | 52.96510 | 24906 ft | 477 kts | 117° |
| 2026-04-24 09:13 | 25.91829 | 52.99872 | 24904 ft | 477 kts | 117° |
| 2026-04-24 09:13 | 25.90455 | 53.03238 | 24904 ft | 477 kts | 117° |
| 2026-04-24 09:13 | 25.89098 | 53.06553 | 24904 ft | 477 kts | 117° |
| 2026-04-24 09:13 | 25.87722 | 53.09916 | 24905 ft | 477 kts | 117° |
| 2026-04-24 09:14 | 25.86349 | 53.13274 | 24904 ft | 477 kts | 117° |
| 2026-04-24 09:14 | 25.84974 | 53.16643 | 24905 ft | 477 kts | 117° |
| 2026-04-24 09:14 | 25.83759 | 53.20092 | 24903 ft | 480 kts | 109° |
| 2026-04-24 09:14 | 25.82786 | 53.23596 | 24906 ft | 480 kts | 109° |
| 2026-04-24 09:15 | 25.81801 | 53.27142 | 24909 ft | 480 kts | 109° |
| 2026-04-24 09:15 | 25.80812 | 53.30688 | 24912 ft | 480 kts | 109° |
| 2026-04-24 09:15 | 25.79820 | 53.34235 | 24908 ft | 481 kts | 109° |
| 2026-04-24 09:15 | 25.78828 | 53.37777 | 24908 ft | 481 kts | 109° |
| 2026-04-24 09:16 | 25.77835 | 53.41321 | 24906 ft | 481 kts | 109° |
| 2026-04-24 09:16 | 25.76843 | 53.44865 | 24907 ft | 481 kts | 109° |
| 2026-04-24 09:16 | 25.75846 | 53.48417 | 24908 ft | 481 kts | 109° |
| 2026-04-24 09:16 | 25.74862 | 53.51911 | 24907 ft | 481 kts | 109° |
| 2026-04-24 09:17 | 25.73862 | 53.55445 | 24907 ft | 481 kts | 110° |
| 2026-04-24 09:17 | 25.72853 | 53.58982 | 24906 ft | 481 kts | 110° |
| 2026-04-24 09:17 | 25.71844 | 53.62519 | 24905 ft | 481 kts | 110° |
| 2026-04-24 09:17 | 25.70834 | 53.66055 | 24905 ft | 481 kts | 110° |
| 2026-04-24 09:18 | 25.69820 | 53.69597 | 24906 ft | 481 kts | 110° |
| 2026-04-24 09:18 | 25.68808 | 53.73140 | 24908 ft | 481 kts | 110° |
| 2026-04-24 09:18 | 25.67798 | 53.76674 | 24906 ft | 481 kts | 110° |
| 2026-04-24 09:18 | 25.66783 | 53.80216 | 24909 ft | 481 kts | 110° |
| 2026-04-24 09:19 | 25.65781 | 53.83703 | 24907 ft | 481 kts | 110° |
| 2026-04-24 09:19 | 25.64765 | 53.87244 | 24904 ft | 481 kts | 110° |
| 2026-04-24 09:19 | 25.63748 | 53.90777 | 24903 ft | 481 kts | 110° |
| 2026-04-24 09:19 | 25.62729 | 53.94308 | 24902 ft | 481 kts | 110° |
| 2026-04-24 09:20 | 25.61710 | 53.97846 | 24902 ft | 481 kts | 110° |
| 2026-04-24 09:20 | 25.60693 | 54.01382 | 24893 ft | 481 kts | 110° |
| 2026-04-24 09:20 | 25.59679 | 54.04915 | 24887 ft | 481 kts | 110° |
| 2026-04-24 09:20 | 25.58666 | 54.08439 | 24882 ft | 481 kts | 110° |
| 2026-04-24 09:21 | 25.57645 | 54.11979 | 24879 ft | 481 kts | 110° |
| 2026-04-24 09:21 | 25.56622 | 54.15517 | 24880 ft | 481 kts | 110° |
| 2026-04-24 09:21 | 25.55608 | 54.19017 | 24876 ft | 481 kts | 110° |
| 2026-04-24 09:21 | 25.54582 | 54.22547 | 24873 ft | 481 kts | 110° |
| 2026-04-24 09:22 | 25.53552 | 54.26083 | 24870 ft | 482 kts | 110° |
| 2026-04-24 09:22 | 25.52525 | 54.29611 | 24868 ft | 482 kts | 110° |
| 2026-04-24 09:22 | 25.51496 | 54.33147 | 24869 ft | 482 kts | 110° |
| 2026-04-24 09:22 | 25.50468 | 54.36684 | 24873 ft | 481 kts | 110° |
| 2026-04-24 09:23 | 25.49444 | 54.40214 | 24869 ft | 481 kts | 110° |
| 2026-04-24 09:23 | 25.48418 | 54.43745 | 24871 ft | 482 kts | 110° |
| 2026-04-24 09:23 | 25.47401 | 54.47234 | 24871 ft | 482 kts | 110° |
| 2026-04-24 09:23 | 25.46370 | 54.50755 | 24873 ft | 481 kts | 110° |
| 2026-04-24 09:24 | 25.45333 | 54.54295 | 24873 ft | 481 kts | 110° |
| 2026-04-24 09:24 | 25.44302 | 54.57820 | 24873 ft | 481 kts | 109° |
| 2026-04-24 09:24 | 25.43510 | 54.61422 | 24870 ft | 483 kts | 100° |
| 2026-04-24 09:24 | 25.43215 | 54.65130 | 24724 ft | 485 kts | 91° |
| 2026-04-24 09:25 | 25.43282 | 54.68873 | 24471 ft | 485 kts | 89° |
| 2026-04-24 09:25 | 25.43468 | 54.72588 | 23821 ft | 484 kts | 82° |
| 2026-04-24 09:25 | 25.44362 | 54.76149 | 22538 ft | 491 kts | 66° |
| 2026-04-24 09:25 | 25.46050 | 54.79390 | 21247 ft | 482 kts | 55° |
| 2026-04-24 09:26 | 25.47891 | 54.82469 | 19974 ft | 473 kts | 56° |
| 2026-04-24 09:26 | 25.49675 | 54.85490 | 18720 ft | 464 kts | 56° |
| 2026-04-24 09:26 | 25.51415 | 54.88467 | 17486 ft | 455 kts | 56° |
| 2026-04-24 09:26 | 25.53106 | 54.91384 | 16542 ft | 441 kts | 56° |
| 2026-04-24 09:27 | 25.54707 | 54.94154 | 16312 ft | 411 kts | 56° |
| 2026-04-24 09:27 | 25.56194 | 54.96730 | 16175 ft | 383 kts | 56° |
| 2026-04-24 09:27 | 25.57586 | 54.99135 | 16050 ft | 359 kts | 56° |
| 2026-04-24 09:27 | 25.58880 | 55.01364 | 15913 ft | 338 kts | 56° |
| 2026-04-24 09:28 | 25.60132 | 55.03515 | 15608 ft | 326 kts | 56° |
| 2026-04-24 09:28 | 25.61348 | 55.05608 | 15110 ft | 321 kts | 56° |
| 2026-04-24 09:28 | 25.62528 | 55.07688 | 14580 ft | 317 kts | 62° |
| 2026-04-24 09:28 | 25.63212 | 55.09993 | 14047 ft | 314 kts | 84° |
| 2026-04-24 09:29 | 25.63116 | 55.12370 | 13525 ft | 308 kts | 106° |
| 2026-04-24 09:29 | 25.62314 | 55.14535 | 12976 ft | 301 kts | 123° |
| 2026-04-24 09:29 | 25.61264 | 55.16548 | 12391 ft | 300 kts | 122° |
| 2026-04-24 09:29 | 25.60573 | 55.17877 | 12038 ft | 298 kts | 122° |
| 2026-04-24 09:30 | 25.59546 | 55.19853 | 11503 ft | 296 kts | 122° |
| 2026-04-24 09:30 | 25.58193 | 55.22464 | 10767 ft | 293 kts | 122° |
| 2026-04-24 09:30 | 25.57520 | 55.23762 | 10387 ft | 291 kts | 121° |
| 2026-04-24 09:30 | 25.56515 | 55.25707 | 9817 ft | 289 kts | 121° |
| 2026-04-24 09:31 | 25.55511 | 55.27651 | 9398 ft | 289 kts | 121° |
| 2026-04-24 09:31 | 25.54521 | 55.29573 | 8820 ft | 286 kts | 121° |
| 2026-04-24 09:31 | 25.53536 | 55.31487 | 8246 ft | 284 kts | 121° |
| 2026-04-24 09:31 | 25.52572 | 55.33347 | 7744 ft | 278 kts | 121° |
| 2026-04-24 09:32 | 25.51619 | 55.35175 | 7614 ft | 274 kts | 121° |
| 2026-04-24 09:32 | 25.50660 | 55.37006 | 7489 ft | 275 kts | 121° |
| 2026-04-24 09:32 | 25.49699 | 55.38831 | 7366 ft | 274 kts | 121° |
| 2026-04-24 09:32 | 25.48742 | 55.40652 | 7245 ft | 273 kts | 121° |
| 2026-04-24 09:33 | 25.47781 | 55.42469 | 7121 ft | 273 kts | 122° |
| 2026-04-24 09:33 | 25.46806 | 55.44263 | 6995 ft | 272 kts | 122° |
| 2026-04-24 09:33 | 25.45825 | 55.46045 | 6881 ft | 271 kts | 122° |
| 2026-04-24 09:33 | 25.44842 | 55.47826 | 6758 ft | 271 kts | 122° |
| 2026-04-24 09:34 | 25.43850 | 55.49564 | 6633 ft | 269 kts | 123° |
| 2026-04-24 09:34 | 25.42825 | 55.51297 | 6507 ft | 269 kts | 124° |
| 2026-04-24 09:34 | 25.41792 | 55.53024 | 6387 ft | 269 kts | 124° |
| 2026-04-24 09:34 | 25.40765 | 55.54744 | 6266 ft | 267 kts | 124° |
| 2026-04-24 09:35 | 25.39743 | 55.56458 | 6138 ft | 260 kts | 124° |
| 2026-04-24 09:35 | 25.38781 | 55.58071 | 6004 ft | 246 kts | 124° |
| 2026-04-24 09:35 | 25.37853 | 55.59643 | 5887 ft | 244 kts | 123° |
| 2026-04-24 09:35 | 25.36953 | 55.61230 | 5763 ft | 242 kts | 122° |
| 2026-04-24 09:36 | 25.36073 | 55.62817 | 5641 ft | 242 kts | 122° |
| 2026-04-24 09:36 | 25.35210 | 55.64385 | 5518 ft | 242 kts | 122° |
| 2026-04-24 09:36 | 25.34336 | 55.65978 | 5385 ft | 242 kts | 122° |
| 2026-04-24 09:36 | 25.33464 | 55.67567 | 5273 ft | 241 kts | 122° |
| 2026-04-24 09:37 | 25.32588 | 55.69149 | 5149 ft | 240 kts | 122° |
| 2026-04-24 09:37 | 25.31714 | 55.70725 | 5021 ft | 239 kts | 122° |
| 2026-04-24 09:37 | 25.30850 | 55.72279 | 4952 ft | 232 kts | 122° |
| 2026-04-24 09:37 | 25.30035 | 55.73746 | 4864 ft | 215 kts | 122° |
| 2026-04-24 09:38 | 25.29284 | 55.75102 | 4730 ft | 203 kts | 122° |
| 2026-04-24 09:38 | 25.28562 | 55.76397 | 4593 ft | 192 kts | 123° |
| 2026-04-24 09:38 | 25.27860 | 55.77613 | 4463 ft | 183 kts | 123° |
| 2026-04-24 09:38 | 25.27182 | 55.78768 | 4337 ft | 176 kts | 123° |
| 2026-04-24 09:39 | 25.26526 | 55.79885 | 4205 ft | 169 kts | 123° |
| 2026-04-24 09:39 | 25.25894 | 55.80963 | 4080 ft | 166 kts | 123° |
| 2026-04-24 09:39 | 25.25269 | 55.82030 | 3954 ft | 164 kts | 123° |
| 2026-04-24 09:39 | 25.24656 | 55.83074 | 3827 ft | 164 kts | 123° |
| 2026-04-24 09:40 | 25.24030 | 55.84133 | 3710 ft | 164 kts | 123° |
| 2026-04-24 09:40 | 25.23407 | 55.85185 | 3576 ft | 163 kts | 123° |
| 2026-04-24 09:40 | 25.22755 | 55.86211 | 3450 ft | 163 kts | 137° |
| 2026-04-24 09:40 | 25.21791 | 55.86839 | 3325 ft | 161 kts | 167° |
| 2026-04-24 09:41 | 25.20685 | 55.86860 | 3203 ft | 160 kts | 197° |
| 2026-04-24 09:41 | 25.19700 | 55.86322 | 3091 ft | 158 kts | 214° |
| 2026-04-24 09:41 | 25.18780 | 55.85676 | 2966 ft | 159 kts | 213° |
| 2026-04-24 09:41 | 25.17845 | 55.85027 | 2840 ft | 159 kts | 214° |
| 2026-04-24 09:42 | 25.16929 | 55.84347 | 2722 ft | 158 kts | 224° |
| 2026-04-24 09:42 | 25.16273 | 55.83393 | 2581 ft | 157 kts | 248° |
| 2026-04-24 09:42 | 25.16017 | 55.82240 | 2467 ft | 154 kts | 271° |
| 2026-04-24 09:42 | 25.16200 | 55.81094 | 2467 ft | 151 kts | 294° |
| 2026-04-24 09:43 | 25.16717 | 55.80089 | 2512 ft | 153 kts | 303° |
| 2026-04-24 09:43 | 25.17292 | 55.79100 | 2522 ft | 153 kts | 304° |
| 2026-04-24 09:43 | 25.17868 | 55.78110 | 2509 ft | 153 kts | 303° |
| 2026-04-24 09:43 | 25.18443 | 55.77118 | 2517 ft | 153 kts | 304° |
| 2026-04-24 09:44 | 25.19021 | 55.76123 | 2403 ft | 153 kts | 303° |
| 2026-04-24 09:44 | 25.19596 | 55.75132 | 2271 ft | 152 kts | 304° |
| 2026-04-24 09:44 | 25.20158 | 55.74161 | 2165 ft | 149 kts | 303° |
| 2026-04-24 09:44 | 25.20715 | 55.73199 | 2095 ft | 145 kts | 304° |
| 2026-04-24 09:45 | 25.21249 | 55.72277 | 2036 ft | 144 kts | 303° |
| 2026-04-24 09:45 | 25.21788 | 55.71348 | 2009 ft | 143 kts | 303° |
| 2026-04-24 09:45 | 25.22324 | 55.70423 | 2010 ft | 143 kts | 303° |
| 2026-04-24 09:45 | 25.22859 | 55.69497 | 2008 ft | 143 kts | 303° |
| 2026-04-24 09:46 | 25.23393 | 55.68574 | 2006 ft | 143 kts | 304° |
| 2026-04-24 09:46 | 25.23929 | 55.67648 | 2011 ft | 143 kts | 304° |
| 2026-04-24 09:46 | 25.24457 | 55.66734 | 2013 ft | 143 kts | 303° |
| 2026-04-24 09:46 | 25.24994 | 55.65807 | 2014 ft | 143 kts | 303° |
| 2026-04-24 09:47 | 25.25533 | 55.64874 | 2016 ft | 143 kts | 303° |
| 2026-04-24 09:47 | 25.26069 | 55.63947 | 2023 ft | 143 kts | 303° |
| 2026-04-24 09:47 | 25.26605 | 55.63019 | 2010 ft | 143 kts | 303° |
| 2026-04-24 09:47 | 25.27145 | 55.62085 | 1895 ft | 144 kts | 303° |
| 2026-04-24 09:48 | 25.27681 | 55.61156 | 1749 ft | 143 kts | 303° |
| 2026-04-24 09:48 | 25.28208 | 55.60244 | 1587 ft | 142 kts | 303° |
| 2026-04-24 09:48 | 25.28740 | 55.59324 | 1413 ft | 142 kts | 303° |
| 2026-04-24 09:48 | 25.29270 | 55.58407 | 1217 ft | 141 kts | 303° |
| 2026-04-24 09:49 | 25.29800 | 55.57488 | 1029 ft | 142 kts | 303° |
| 2026-04-24 09:49 | 25.30328 | 55.56573 | 835 ft | 141 kts | 303° |
| 2026-04-24 09:49 | 25.30857 | 55.55657 | 657 ft | 141 kts | 303° |
| 2026-04-24 09:49 | 25.31385 | 55.54741 | 465 ft | 141 kts | 303° |
| 2026-04-24 09:50 | 25.31912 | 55.53830 | 293 ft | 140 kts | 304° |
| 2026-04-24 09:50 | 25.32438 | 55.52939 | 164 ft | 140 kts | 303° |
| 2026-04-24 09:50 | 25.32936 | 55.52074 | 120 ft | 124 kts | 302° |
| 2026-04-24 09:50 | 25.33306 | 55.51431 | 114 ft | 60 kts | 302° |
| 2026-04-24 09:51 | 25.33406 | 55.51246 | 113 ft | 12 kts | 295° |
| 2026-04-24 09:51 | 25.33438 | 55.51165 | 113 ft | 11 kts | 291° |
| 2026-04-24 09:51 | 25.33460 | 55.51093 | 115 ft | 8 kts | 281° |
| 2026-04-24 09:51 | 25.33459 | 55.51038 | 115 ft | 6 kts | 257° |
| 2026-04-24 09:52 | 25.33445 | 55.51009 | 115 ft | 0 kts | 234° |